SWNP weather

CLOSED Novo Paraiso Airport
Novo Paraiso, Roraima, Brazil

Public forecast

Using degrees Celsius for public forecast. Weather courtesy of forecast.io.

Closest aviation weather report (METAR) to Novo Paraiso Airport

Closest report is Atlas Brasil Cantanhede Airport, 97.0 nm (179.7 km) N. Retrieved 2019/12/13 15:00 UTC (54 minutes ago):

SBBV 131500Z 07012KT 3000 VCSH BKN013 OVC020 27/23 Q1012

Closest aviation forecast (TAF) to Novo Paraiso Airport

Closest forecast is Atlas Brasil Cantanhede Airport, 97.0 nm (179.7 km) N. Retrieved 2019/12/13 12:00 UTC (4 hours ago):

TAF SBBV 130740Z 1312/1412 13005KT 9999 SCT020 TX33/1316Z TN24/1409Z BECMG 1316/1318 12010KT SCT035 FEW040TCU BECMG 1321/1323 SCT040 BECMG 1403/1405 BKN025 TEMPO 1408/1411 18010KT 4000 TSRA BKN015 FEW025CB RMK PGZ